createdAt,value
2022-11-17T00:00:30.636Z,7.00
2022-11-17T00:05:36.129Z,6.90
2022-11-17T00:10:40.943Z,6.90
2022-11-17T00:15:45.638Z,6.80
2022-11-17T00:21:06.164Z,6.90
2022-11-17T00:26:11.047Z,6.80
2022-11-17T00:31:34.651Z,6.70
2022-11-17T00:36:40.443Z,6.80
2022-11-17T00:41:45.264Z,6.80
2022-11-17T00:46:48.608Z,6.70
2022-11-17T00:51:52.325Z,6.80
2022-11-17T00:56:57.257Z,6.80
2022-11-17T01:02:00.605Z,6.70
2022-11-17T01:07:04.019Z,6.70
2022-11-17T01:12:09.140Z,6.80
2022-11-17T01:17:12.429Z,6.80
2022-11-17T01:22:15.677Z,6.70
2022-11-17T01:27:20.304Z,6.60
2022-11-17T01:32:23.572Z,6.70
2022-11-17T01:37:27.914Z,6.70
2022-11-17T01:42:32.589Z,6.70
2022-11-17T01:47:45.641Z,6.70
2022-11-17T01:52:51.571Z,6.80
2022-11-17T01:57:59.887Z,6.70
2022-11-17T02:03:07.114Z,6.70
2022-11-17T02:08:11.287Z,6.80
2022-11-17T02:13:16.406Z,6.80
2022-11-17T02:18:20.099Z,6.70
2022-11-17T02:23:55.741Z,6.70
2022-11-17T02:29:11.191Z,6.70
2022-11-17T02:34:26.249Z,6.70
2022-11-17T02:39:34.812Z,6.80
2022-11-17T02:44:46.193Z,6.80
2022-11-17T02:49:54.874Z,6.70
2022-11-17T02:55:01.312Z,6.70
2022-11-17T03:00:08.778Z,6.80
2022-11-17T03:05:18.241Z,6.70
2022-11-17T03:10:26.732Z,6.70
2022-11-17T03:15:43.948Z,6.60
2022-11-17T03:20:53.999Z,6.70
2022-11-17T03:26:00.124Z,6.70
2022-11-17T03:31:09.433Z,6.60
2022-11-17T03:36:15.927Z,6.60
2022-11-17T03:41:20.832Z,6.60
2022-11-17T03:46:27.664Z,6.60
2022-11-17T03:51:33.958Z,6.60
2022-11-17T03:56:48.175Z,6.60
2022-11-17T04:01:53.325Z,6.60
2022-11-17T04:06:56.731Z,6.60
2022-11-17T04:12:17.279Z,6.50
2022-11-17T04:17:21.956Z,6.50
2022-11-17T04:22:25.217Z,6.50
2022-11-17T04:27:45.743Z,6.50
2022-11-17T04:32:50.412Z,6.50
2022-11-17T04:37:53.673Z,6.50
2022-11-17T04:42:56.954Z,6.50
2022-11-17T04:48:01.643Z,6.50
2022-11-17T04:53:04.923Z,6.50
2022-11-17T04:58:08.191Z,6.50
2022-11-17T05:03:13.734Z,6.50
2022-11-17T05:08:17.160Z,6.40
2022-11-17T05:13:25.094Z,6.50
2022-11-17T05:18:29.885Z,6.50
2022-11-17T05:23:50.860Z,6.50
2022-11-17T05:28:56.092Z,6.40
2022-11-17T05:34:01.513Z,6.40
2022-11-17T05:39:05.938Z,6.40
2022-11-17T05:44:09.292Z,6.30
2022-11-17T05:49:14.058Z,6.30
2022-11-17T05:54:17.325Z,6.30
2022-11-17T05:59:28.080Z,6.30
2022-11-17T06:04:33.673Z,2.00
2022-11-17T06:09:39.749Z,6.40
2022-11-17T06:14:43.074Z,6.40
2022-11-17T06:19:52.428Z,6.40
2022-11-17T06:24:56.631Z,6.30
2022-11-17T06:30:01.718Z,6.40
2022-11-17T06:35:08.863Z,6.40
2022-11-17T06:40:13.501Z,6.30
2022-11-17T06:45:16.946Z,6.30
2022-11-17T06:50:21.621Z,6.20
2022-11-17T06:55:24.939Z,6.30
2022-11-17T07:00:28.525Z,6.30
2022-11-17T07:05:34.360Z,6.40
2022-11-17T07:10:38.032Z,6.30
2022-11-17T07:15:41.344Z,6.20
2022-11-17T07:20:46.087Z,6.40
2022-11-17T07:25:49.351Z,6.50
2022-11-17T07:30:52.793Z,6.40
2022-11-17T07:35:57.763Z,6.50
2022-11-17T07:41:01.306Z,6.50
2022-11-17T07:46:06.496Z,6.50
2022-11-17T07:51:12.408Z,6.60
2022-11-17T07:56:16.000Z,6.60
2022-11-17T08:01:19.400Z,6.50
2022-11-17T08:06:25.006Z,6.40
2022-11-17T08:11:28.679Z,6.50
2022-11-17T08:16:32.204Z,6.60
2022-11-17T08:21:38.369Z,6.70
2022-11-17T08:26:41.697Z,6.70
2022-11-17T08:31:46.338Z,6.80
2022-11-17T08:36:51.118Z,6.80
2022-11-17T08:41:54.383Z,6.80
2022-11-17T08:46:57.614Z,6.90
2022-11-17T08:52:02.272Z,6.90
2022-11-17T08:57:05.621Z,6.90
2022-11-17T09:02:08.948Z,10.70
2022-11-17T09:07:13.625Z,7.00
2022-11-17T09:12:17.940Z,7.10
2022-11-17T09:17:21.193Z,7.20
2022-11-17T09:22:25.851Z,7.20
2022-11-17T09:27:29.093Z,7.20
2022-11-17T09:32:36.591Z,7.30
2022-11-17T09:37:41.212Z,7.50
2022-11-17T09:42:45.205Z,7.70
2022-11-17T09:48:06.968Z,7.80
2022-11-17T09:53:26.505Z,8.90
2022-11-17T09:58:35.831Z,8.20
2022-11-17T10:03:45.511Z,8.10
2022-11-17T10:09:00.406Z,8.10
2022-11-17T10:14:11.966Z,8.20
2022-11-17T10:19:18.192Z,8.40
2022-11-17T10:24:40.885Z,8.50
2022-11-17T10:29:57.937Z,8.50
2022-11-17T10:35:15.451Z,8.80
2022-11-17T10:40:25.350Z,8.90
2022-11-17T10:45:29.831Z,8.70
2022-11-17T10:50:33.189Z,8.80
2022-11-17T10:55:45.062Z,8.40
2022-11-17T11:00:54.446Z,8.40
2022-11-17T11:06:00.252Z,8.40
2022-11-17T11:11:10.005Z,8.40
2022-11-17T11:16:13.368Z,8.50
2022-11-17T11:21:27.634Z,8.30
2022-11-17T11:26:45.658Z,8.20
2022-11-17T11:32:01.931Z,8.10
2022-11-17T11:37:10.682Z,8.30
2022-11-17T11:42:45.202Z,8.30
2022-11-17T11:48:09.994Z,8.50
2022-11-17T11:53:20.003Z,9.00
2022-11-17T11:58:26.060Z,8.90
2022-11-17T12:03:35.195Z,9.00
2022-11-17T12:08:47.266Z,9.10
2022-11-17T12:13:54.483Z,9.40
2022-11-17T12:18:58.413Z,9.70
2022-11-17T12:24:14.205Z,9.50
2022-11-17T12:29:33.988Z,9.40
2022-11-17T12:34:37.977Z,9.60
2022-11-17T12:40:02.129Z,9.50
2022-11-17T12:45:12.271Z,9.60
2022-11-17T12:50:49.805Z,10.00
2022-11-17T12:56:26.478Z,10.10
2022-11-17T13:01:41.671Z,10.30
2022-11-17T13:07:00.903Z,10.10
2022-11-17T13:12:05.833Z,9.80
2022-11-17T13:17:13.474Z,9.70
2022-11-17T13:22:18.821Z,9.80
2022-11-17T13:27:24.669Z,10.00
2022-11-17T13:32:29.528Z,9.90
2022-11-17T13:37:33.013Z,9.90
2022-11-17T13:42:36.881Z,9.90
2022-11-17T13:47:47.363Z,9.90
2022-11-17T13:52:55.577Z,9.80
2022-11-17T13:58:01.780Z,9.80
2022-11-17T14:03:27.523Z,9.90
2022-11-17T14:08:33.353Z,10.00
2022-11-17T14:13:40.755Z,10.30
2022-11-17T14:18:55.660Z,10.50
2022-11-17T14:24:05.421Z,10.50
2022-11-17T14:29:12.485Z,10.40
2022-11-17T14:34:17.672Z,11.20
2022-11-17T14:39:21.157Z,11.40
2022-11-17T14:44:24.740Z,11.20
2022-11-17T14:49:29.480Z,10.90
2022-11-17T14:54:32.760Z,10.70
2022-11-17T14:59:36.077Z,10.50
2022-11-17T15:04:50.462Z,10.50
2022-11-17T15:09:54.893Z,10.30
2022-11-17T15:14:58.322Z,10.10
2022-11-17T15:20:03.087Z,9.60
2022-11-17T15:25:08.045Z,9.40
2022-11-17T15:30:12.254Z,9.20
2022-11-17T15:35:16.995Z,8.90
2022-11-17T15:40:20.616Z,8.70
2022-11-17T15:45:23.947Z,8.40
2022-11-17T15:50:28.678Z,8.20
2022-11-17T15:55:31.919Z,8.20
2022-11-17T16:00:35.482Z,8.10
2022-11-17T16:05:40.201Z,8.10
2022-11-17T16:10:43.464Z,8.00
2022-11-17T16:15:49.686Z,8.00
2022-11-17T16:20:57.876Z,8.00
2022-11-17T16:26:03.783Z,7.80
2022-11-17T16:31:18.035Z,7.90
2022-11-17T16:36:25.799Z,7.80
2022-11-17T16:41:32.111Z,7.80
2022-11-17T16:46:35.595Z,7.70
2022-11-17T16:51:40.940Z,7.60
2022-11-17T16:56:44.283Z,7.70
2022-11-17T17:01:49.776Z,7.80
2022-11-17T17:06:54.499Z,7.70
2022-11-17T17:12:01.355Z,10.00
2022-11-17T17:17:06.150Z,7.50
2022-11-17T17:22:11.379Z,7.50
2022-11-17T17:27:14.686Z,7.40
2022-11-17T17:32:18.003Z,7.30
2022-11-17T17:37:22.667Z,7.30
2022-11-17T17:42:25.993Z,7.30
2022-11-17T17:47:29.245Z,7.30
2022-11-17T17:52:34.169Z,7.20
2022-11-17T17:57:37.942Z,7.10
2022-11-17T18:02:41.854Z,7.10
2022-11-17T18:07:46.636Z,7.00
2022-11-17T18:12:49.997Z,6.90
2022-11-17T18:17:53.245Z,6.90
2022-11-17T18:22:58.050Z,7.00
2022-11-17T18:28:01.324Z,7.00
2022-11-17T18:33:04.632Z,7.00
2022-11-17T18:38:09.348Z,7.10
2022-11-17T18:43:12.627Z,7.00
2022-11-17T18:48:15.936Z,7.10
2022-11-17T18:53:20.587Z,7.10
2022-11-17T18:58:23.868Z,7.10
2022-11-17T19:03:27.187Z,7.10
2022-11-17T19:08:32.293Z,7.20
2022-11-17T19:13:36.859Z,7.10
2022-11-17T19:18:40.305Z,7.20
2022-11-17T19:23:51.417Z,7.30
2022-11-17T19:28:56.795Z,7.30
2022-11-17T19:34:00.655Z,7.30
2022-11-17T19:39:05.471Z,7.30
2022-11-17T19:44:10.442Z,7.30
2022-11-17T19:49:14.447Z,7.20
2022-11-17T19:54:19.417Z,7.20
2022-11-17T19:59:23.041Z,7.30
2022-11-17T20:04:26.413Z,7.30
2022-11-17T20:09:31.248Z,7.20
2022-11-17T20:14:34.522Z,7.20
2022-11-17T20:19:37.851Z,7.20
2022-11-17T20:24:42.519Z,7.20
2022-11-17T20:29:45.829Z,7.20
2022-11-17T20:34:49.108Z,7.20
2022-11-17T20:39:53.760Z,7.20
2022-11-17T20:44:57.103Z,7.20
2022-11-17T20:50:00.551Z,7.20
2022-11-17T20:55:06.132Z,7.20
2022-11-17T21:00:10.946Z,7.20
2022-11-17T21:05:14.398Z,7.30
2022-11-17T21:10:19.363Z,7.20
2022-11-17T21:15:22.642Z,7.20
2022-11-17T21:20:28.170Z,7.20
2022-11-17T21:25:32.885Z,7.20
2022-11-17T21:30:36.224Z,7.10
2022-11-17T21:35:39.679Z,7.20
2022-11-17T21:40:45.232Z,7.20
2022-11-17T21:45:48.609Z,7.20
2022-11-17T21:50:52.008Z,7.10
2022-11-17T21:56:01.541Z,7.00
2022-11-17T22:01:08.786Z,7.10
2022-11-17T22:06:14.609Z,7.10
2022-11-17T22:11:35.270Z,7.10
2022-11-17T22:16:40.828Z,7.10
2022-11-17T22:21:44.847Z,7.10
2022-11-17T22:26:51.615Z,7.10
2022-11-17T22:31:54.932Z,7.20
2022-11-17T22:36:58.200Z,7.20
2022-11-17T22:42:02.926Z,7.20
2022-11-17T22:47:06.423Z,7.30
2022-11-17T22:52:12.160Z,7.20
2022-11-17T22:57:16.799Z,7.30
2022-11-17T23:02:20.040Z,7.20
2022-11-17T23:07:23.391Z,7.30
2022-11-17T23:12:28.126Z,7.20
2022-11-17T23:17:31.464Z,7.10
2022-11-17T23:22:35.963Z,7.10
2022-11-17T23:27:40.674Z,7.30
2022-11-17T23:32:44.026Z,7.10
2022-11-17T23:37:47.336Z,7.20
2022-11-17T23:42:54.241Z,7.10
2022-11-17T23:47:57.523Z,7.10
2022-11-17T23:53:00.836Z,7.20
2022-11-17T23:58:06.023Z,7.20
